Time;durP1;ratioP1;P1;durP2;ratioP2;P2;SDS_P1;SDS_P2;PMS_P1;PMS_P2;Temp;Humidity;BMP_temperature;BMP_pressure;BME280_temperature;BME280_humidity;BME280_pressure;Samples;Min_cycle;Max_cycle;Signal;HPM_P1;HPM_P2
2022/10/27 00:02:07;;;;;;;;;4.67;3.00;;;;;17.85;70.03;101278.72;5035480;28;45673;-59
2022/10/27 00:04:32;;;;;;;;;2.00;2.00;;;;;17.83;69.91;101281.50;5020599;28;46965;-58
2022/10/27 00:06:58;;;;;;;;;3.33;3.00;;;;;17.82;69.83;101284.31;5016045;28;45567;-60
2022/10/27 00:09:23;;;;;;;;;3.67;2.00;;;;;17.76;70.00;101276.72;5039579;28;47808;-60
2022/10/27 00:11:49;;;;;;;;;3.33;2.00;;;;;17.77;70.16;101281.13;5035351;28;45394;-64
2022/10/27 00:14:14;;;;;;;;;2.00;2.00;;;;;17.74;69.88;101286.75;5035586;28;45335;-61
2022/10/27 00:16:40;;;;;;;;;3.67;3.67;;;;;17.75;70.01;101283.06;5034408;28;45650;-60
2022/10/27 00:19:05;;;;;;;;;2.33;2.33;;;;;17.73;70.22;101290.41;5018181;28;46243;-60
2022/10/27 00:21:31;;;;;;;;;2.00;2.00;;;;;17.72;70.02;101292.25;5014090;28;45378;-61
2022/10/27 00:23:56;;;;;;;;;1.00;1.00;;;;;17.72;70.24;101294.94;5022769;28;45354;-62
2022/10/27 00:26:22;;;;;;;;;4.33;3.00;;;;;17.70;69.85;101291.47;5037829;28;45221;-60
2022/10/27 00:28:47;;;;;;;;;1.67;1.67;;;;;17.71;70.01;101292.34;5038729;28;46232;-59
2022/10/27 00:31:18;;;;;;;;;3.00;3.00;;;;;17.62;70.20;101283.09;5038277;28;45241;-60
2022/10/27 00:33:45;;;;;;;;;2.67;2.00;;;;;17.59;70.17;101286.88;5023959;28;45507;-60
2022/10/27 00:36:13;;;;;;;;;2.67;2.00;;;;;17.60;70.19;101291.28;5022584;28;45406;-60
2022/10/27 00:38:39;;;;;;;;;2.00;2.00;;;;;17.59;70.35;101294.09;5051138;28;45495;-59
2022/10/27 00:41:07;;;;;;;;;2.67;2.67;;;;;17.57;70.56;101291.50;5031920;28;45274;-59
2022/10/27 00:43:35;;;;;;;;;2.67;2.00;;;;;17.52;70.40;101288.31;5038579;28;45354;-60
2022/10/27 00:46:24;;;;;;;;;2.67;2.00;;;;;17.44;70.22;101273.69;5035318;28;45334;-60
2022/10/27 00:48:54;;;;;;;;;2.00;1.00;;;;;17.47;70.64;101279.72;5037954;28;46022;-60
2022/10/27 00:51:20;;;;;;;;;2.00;2.00;;;;;17.44;71.01;101274.56;5038334;28;45370;-59
2022/10/27 00:53:48;;;;;;;;;2.00;2.00;;;;;17.43;70.48;101280.91;5038512;28;45473;-60
2022/10/27 00:56:15;;;;;;;;;3.00;2.00;;;;;17.40;71.13;101284.69;5029586;28;45487;-60
2022/10/27 00:58:42;;;;;;;;;2.00;2.00;;;;;17.42;71.03;101289.94;5032908;28;45197;-58
2022/10/27 01:01:07;;;;;;;;;3.00;3.00;;;;;17.37;71.26;101273.31;5031391;28;45290;-60
2022/10/27 01:03:33;;;;;;;;;3.00;2.00;;;;;17.37;70.72;101278.69;5020288;28;45267;-59
2022/10/27 01:05:59;;;;;;;;;4.67;4.00;;;;;17.34;71.17;101269.00;5018588;28;45641;-60
2022/10/27 01:08:25;;;;;;;;;2.67;2.67;;;;;17.28;70.98;101265.91;5020214;28;46699;-61
2022/10/27 01:10:52;;;;;;;;;5.00;3.00;;;;;17.30;71.26;101274.72;5021529;28;45430;-60
2022/10/27 01:13:19;;;;;;;;;4.33;3.00;;;;;17.28;70.96;101273.97;5017693;28;45384;-59
2022/10/27 01:16:04;;;;;;;;;3.00;2.00;;;;;17.25;70.92;101271.50;5029823;28;45555;-60
2022/10/27 01:18:46;;;;;;;;;2.33;2.33;;;;;17.25;71.23;101268.81;5037334;28;45277;-60
2022/10/27 01:21:30;;;;;;;;;4.00;2.00;;;;;17.24;71.30;101262.59;5029379;28;45478;-60
2022/10/27 01:24:19;;;;;;;;;3.00;3.00;;;;;17.25;70.97;101266.13;5016865;28;45330;-60
2022/10/27 01:26:59;;;;;;;;;2.67;2.00;;;;;17.20;70.95;101265.63;5018304;28;45276;-59
2022/10/27 01:29:49;;;;;;;;;2.00;2.00;;;;;17.19;71.24;101259.41;5016743;28;46388;-60
2022/10/27 01:32:26;;;;;;;;;2.00;2.00;;;;;17.15;71.47;101257.88;5010464;28;45394;-60
2022/10/27 01:35:27;;;;;;;;;3.00;0.00;;;;;17.15;71.46;101265.09;5037661;28;45427;-60
2022/10/27 01:38:05;;;;;;;;;1.67;1.67;;;;;16.99;71.35;101239.34;5024818;28;45524;-59
2022/10/27 01:40:38;;;;;;;;;2.00;1.00;;;;;17.06;71.42;101259.44;5019168;28;47970;-61
2022/10/27 01:43:14;;;;;;;;;2.00;2.00;;;;;17.04;71.70;101253.28;5017595;28;45247;-60
2022/10/27 01:45:41;;;;;;;;;4.33;2.00;;;;;17.02;71.69;101257.06;5018234;28;45356;-58
2022/10/27 01:48:09;;;;;;;;;3.33;3.00;;;;;16.98;71.84;101252.88;5027597;28;45367;-59
2022/10/27 01:50:37;;;;;;;;;2.00;2.00;;;;;16.97;71.79;101249.34;5036678;28;46218;-60
2022/10/27 01:53:04;;;;;;;;;1.33;1.33;;;;;16.96;71.87;101247.63;5037091;28;45370;-60
2022/10/27 01:55:39;;;;;;;;;5.33;2.67;;;;;16.96;71.67;101253.00;5037606;28;45251;-60
2022/10/27 01:58:20;;;;;;;;;1.00;1.00;;;;;16.96;71.84;101260.19;5037221;28;45322;-61
2022/10/27 02:01:05;;;;;;;;;2.00;2.00;;;;;16.95;71.62;101256.66;5037034;28;45299;-59
2022/10/27 02:03:44;;;;;;;;;2.00;2.00;;;;;16.90;71.80;101253.41;5020596;28;45371;-60
2022/10/27 02:06:20;;;;;;;;;3.00;2.33;;;;;16.88;71.80;101250.00;5036010;28;45425;-60
2022/10/27 02:08:58;;;;;;;;;2.67;2.67;;;;;16.89;72.05;101251.72;5037241;28;45295;-61
2022/10/27 02:11:26;;;;;;;;;4.67;3.67;;;;;16.91;71.74;101246.22;5036524;28;45541;-60
2022/10/27 02:13:57;;;;;;;;;2.00;2.00;;;;;16.90;71.86;101237.31;5037539;28;45364;-60
2022/10/27 02:16:27;;;;;;;;;4.67;2.00;;;;;16.87;72.09;101232.16;5036924;28;45482;-59
2022/10/27 02:19:01;;;;;;;;;1.67;1.33;;;;;16.88;71.64;101241.94;5034526;28;45690;-60
2022/10/27 02:21:29;;;;;;;;;3.00;2.00;;;;;16.86;71.75;101235.81;5016308;28;46072;-60
2022/10/27 02:23:54;;;;;;;;;4.33;2.00;;;;;16.83;71.52;101230.66;5034046;28;45300;-60
2022/10/27 02:26:27;;;;;;;;;2.00;2.00;;;;;16.80;71.94;101225.53;5037156;28;45327;-60
2022/10/27 02:29:07;;;;;;;;;2.67;2.67;;;;;16.79;71.95;101215.72;5037437;28;45358;-60
2022/10/27 02:31:38;;;;;;;;;3.00;3.00;;;;;16.83;71.68;101227.13;5035146;28;46177;-61
2022/10/27 02:34:05;;;;;;;;;4.00;2.00;;;;;16.78;71.77;101224.75;5033342;28;45818;-61
2022/10/27 02:36:30;;;;;;;;;2.33;2.33;;;;;16.76;72.02;101224.88;5036956;28;45248;-61
2022/10/27 02:38:56;;;;;;;;;3.67;2.00;;;;;16.77;71.82;101220.34;5032045;28;46505;-61
2022/10/27 02:41:21;;;;;;;;;4.00;3.00;;;;;16.78;71.97;101214.00;5049167;28;46989;-61
2022/10/27 02:43:47;;;;;;;;;3.33;3.33;;;;;16.76;71.87;101216.81;5036346;28;45464;-59
2022/10/27 02:46:12;;;;;;;;;3.33;3.00;;;;;16.67;72.08;101197.81;5036888;28;45412;-61
2022/10/27 02:48:37;;;;;;;;;3.33;2.67;;;;;16.73;72.01;101214.34;5027328;28;45719;-61
2022/10/27 02:51:03;;;;;;;;;2.00;2.00;;;;;16.67;71.98;101208.53;5035988;28;46099;-60
2022/10/27 02:53:28;;;;;;;;;5.00;2.00;;;;;16.66;71.83;101214.84;5032465;28;45420;-61
2022/10/27 02:55:54;;;;;;;;;3.67;2.00;;;;;16.69;72.15;101214.69;5033398;28;45405;-61
2022/10/27 02:58:19;;;;;;;;;1.33;1.33;;;;;16.68;72.07;101221.91;4996654;28;45438;-60
2022/10/27 03:00:44;;;;;;;;;2.00;2.00;;;;;16.64;71.81;101214.97;5021476;28;45449;-60
2022/10/27 03:03:10;;;;;;;;;3.67;2.33;;;;;16.69;71.72;101228.13;5035300;28;45350;-60
2022/10/27 03:05:35;;;;;;;;;4.00;3.00;;;;;16.69;71.63;101220.91;5019381;28;45594;-61
2022/10/27 03:08:01;;;;;;;;;3.00;3.00;;;;;16.68;71.55;101212.97;5036644;28;45492;-61
2022/10/27 03:10:26;;;;;;;;;1.67;1.67;;;;;16.66;71.77;101226.44;5028844;28;46201;-61
2022/10/27 03:12:51;;;;;;;;;3.00;3.00;;;;;16.52;71.38;101200.59;5015468;28;45989;-60
2022/10/27 03:15:17;;;;;;;;;3.33;2.00;;;;;16.66;71.45;101222.91;5016226;28;45381;-61
2022/10/27 03:17:46;;;;;;;;;3.67;3.00;;;;;16.66;71.46;101217.53;5016481;28;45396;-61
2022/10/27 03:20:13;;;;;;;;;4.67;4.00;;;;;16.63;71.51;101213.25;5015641;28;46150;-61
2022/10/27 03:22:39;;;;;;;;;6.00;4.00;;;;;16.61;71.73;101208.97;5011745;28;45557;-60
2022/10/27 03:25:05;;;;;;;;;2.67;2.00;;;;;16.59;71.49;101210.91;4996562;28;45277;-60
2022/10/27 03:27:31;;;;;;;;;3.00;3.00;;;;;16.59;71.74;101200.16;5006637;28;45513;-61
2022/10/27 03:29:57;;;;;;;;;2.00;2.00;;;;;16.59;71.61;101205.53;5015211;28;45447;-61
2022/10/27 03:32:22;;;;;;;;;3.33;3.33;;;;;16.56;71.42;101212.00;5015916;28;45350;-60
2022/10/27 03:34:48;;;;;;;;;2.00;2.00;;;;;16.60;71.75;101215.31;5016035;28;45253;-60
2022/10/27 03:37:13;;;;;;;;;3.67;3.00;;;;;16.57;71.73;101212.84;5015250;28;45198;-60
2022/10/27 03:39:39;;;;;;;;;3.00;3.00;;;;;16.60;71.51;101218.00;5014563;28;45367;-60
2022/10/27 03:42:04;;;;;;;;;2.00;2.00;;;;;16.60;71.52;101224.22;5017082;28;45391;-60
2022/10/27 03:44:29;;;;;;;;;3.00;3.00;;;;;16.59;71.29;101216.28;5028943;28;46054;-60
2022/10/27 03:46:55;;;;;;;;;2.33;2.33;;;;;16.60;71.58;101218.00;5018892;28;46831;-60
2022/10/27 03:49:20;;;;;;;;;3.00;3.00;;;;;16.57;71.40;101218.22;5015323;28;46159;-59
2022/10/27 03:51:46;;;;;;;;;3.00;3.00;;;;;16.56;71.59;101221.88;5016052;28;45237;-60
2022/10/27 03:54:11;;;;;;;;;4.33;2.67;;;;;16.55;71.43;101210.28;5029405;28;45287;-59
2022/10/27 03:56:36;;;;;;;;;5.33;4.00;;;;;16.55;71.63;101212.09;5035824;28;45206;-60
2022/10/27 03:59:02;;;;;;;;;2.33;2.33;;;;;16.47;71.44;101196.53;5035553;28;46176;-60
2022/10/27 04:01:34;;;;;;;;;3.33;3.33;;;;;16.48;71.43;101207.16;5037597;28;45377;-59
2022/10/27 04:03:59;;;;;;;;;2.00;2.00;;;;;16.47;71.45;101216.19;5025684;28;45459;-60
2022/10/27 04:06:25;;;;;;;;;5.67;4.33;;;;;16.44;71.46;101212.84;5036732;28;45301;-60
2022/10/27 04:08:50;;;;;;;;;2.67;2.67;;;;;16.42;71.30;101198.69;5023855;28;45278;-60
2022/10/27 04:11:15;;;;;;;;;2.67;2.67;;;;;16.36;71.58;101197.28;5039184;28;46143;-60
2022/10/27 04:13:41;;;;;;;;;2.00;2.00;;;;;16.42;71.87;101220.16;5038861;28;45256;-60
2022/10/27 04:16:07;;;;;;;;;4.00;2.33;;;;;16.41;71.61;101219.31;5039074;28;45386;-60
2022/10/27 04:18:33;;;;;;;;;3.00;3.00;;;;;16.39;71.87;101221.22;5038721;28;45402;-60
2022/10/27 04:21:03;;;;;;;;;2.33;2.00;;;;;16.40;71.86;101219.38;5032767;28;45549;-59
2022/10/27 04:23:29;;;;;;;;;2.00;2.00;;;;;16.41;71.95;101219.31;5029355;28;45519;-63
2022/10/27 04:25:55;;;;;;;;;4.00;2.67;;;;;16.39;71.81;101215.84;5038712;28;45208;-60
2022/10/27 04:28:21;;;;;;;;;2.33;2.33;;;;;16.36;71.85;101209.84;5033552;28;47265;-64
2022/10/27 04:30:47;;;;;;;;;3.00;3.00;;;;;16.38;71.93;101218.66;5016849;28;45593;-60
2022/10/27 04:33:12;;;;;;;;;4.67;3.33;;;;;16.36;71.96;101209.84;5020097;28;45864;-60
2022/10/27 04:35:37;;;;;;;;;3.33;3.33;;;;;16.41;72.05;101215.75;5020121;28;45365;-59
2022/10/27 04:38:03;;;;;;;;;3.00;3.00;;;;;16.29;71.60;101192.47;5021827;28;45913;-58
2022/10/27 04:40:29;;;;;;;;;3.00;3.00;;;;;16.35;71.82;101198.25;5035068;28;45325;-59
2022/10/27 04:42:54;;;;;;;;;2.67;2.67;;;;;16.33;71.92;101192.13;5038442;28;45260;-60
2022/10/27 04:45:20;;;;;;;;;4.00;3.00;;;;;16.31;72.00;101188.72;5027204;28;45623;-60
2022/10/27 04:47:46;;;;;;;;;6.00;5.00;;;;;16.33;72.10;101188.59;5017023;28;47037;-60
2022/10/27 04:50:13;;;;;;;;;1.33;1.33;;;;;16.28;72.33;101180.00;5018290;28;45402;-60
2022/10/27 04:52:38;;;;;;;;;3.00;3.00;;;;;16.30;72.18;101187.00;5016870;28;45466;-60
2022/10/27 04:55:04;;;;;;;;;3.33;3.33;;;;;16.30;72.00;101189.66;5022013;28;45550;-59
2022/10/27 04:57:29;;;;;;;;;2.33;2.33;;;;;16.24;71.85;101179.34;5037675;28;45656;-60
2022/10/27 04:59:55;;;;;;;;;3.67;3.67;;;;;16.30;71.80;101192.34;5031276;28;45376;-60
2022/10/27 05:02:20;;;;;;;;;5.33;5.33;;;;;16.23;71.97;101194.59;5034957;28;45440;-60
2022/10/27 05:04:46;;;;;;;;;5.33;5.33;;;;;16.28;71.82;101194.28;5024159;28;45474;-65
2022/10/27 05:07:11;;;;;;;;;3.67;3.67;;;;;16.27;72.12;101189.88;5026092;28;46185;-60
2022/10/27 05:09:36;;;;;;;;;4.00;4.00;;;;;16.24;72.10;101195.44;5037954;28;45454;-60
2022/10/27 05:12:02;;;;;;;;;5.33;4.00;;;;;16.19;72.12;101184.19;5023095;28;45648;-59
2022/10/27 05:14:27;;;;;;;;;4.00;4.00;;;;;16.24;71.81;101190.09;5018146;28;45597;-59
2022/10/27 05:16:53;;;;;;;;;4.00;4.00;;;;;16.21;72.46;101190.31;5026768;28;45704;-60
2022/10/27 05:19:18;;;;;;;;;4.00;4.00;;;;;16.26;71.91;101182.78;5033966;28;45550;-59
2022/10/27 05:21:44;;;;;;;;;9.33;6.00;;;;;16.24;72.01;101182.03;5029028;28;45519;-59
2022/10/27 05:24:09;;;;;;;;;4.33;4.33;;;;;16.22;72.21;101187.50;5030549;28;45462;-59
2022/10/27 05:26:34;;;;;;;;;6.67;6.67;;;;;16.18;72.12;101180.66;5037528;28;47900;-59
2022/10/27 05:29:00;;;;;;;;;7.00;5.00;;;;;16.22;72.12;101173.25;5020511;28;45530;-60
2022/10/27 05:31:25;;;;;;;;;7.00;6.67;;;;;16.21;72.42;101185.81;5016222;28;45459;-60
2022/10/27 05:33:50;;;;;;;;;9.33;7.67;;;;;16.22;72.14;101181.28;5024686;28;45795;-60
2022/10/27 05:36:16;;;;;;;;;8.67;7.00;;;;;16.22;71.95;101187.50;5016737;28;45497;-60
2022/10/27 05:38:44;;;;;;;;;7.33;6.00;;;;;16.16;72.08;101171.00;5023012;28;45530;-61
2022/10/27 05:41:10;;;;;;;;;5.33;4.00;;;;;16.19;71.92;101174.31;5016745;28;45502;-60
2022/10/27 05:43:35;;;;;;;;;7.00;7.00;;;;;16.22;72.02;101183.97;5017249;28;45343;-60
2022/10/27 05:46:00;;;;;;;;;7.67;6.00;;;;;16.20;72.09;101172.50;5015566;28;47429;-59
2022/10/27 05:48:26;;;;;;;;;6.33;4.67;;;;;16.14;72.34;101159.50;5024594;28;45336;-60
2022/10/27 05:50:52;;;;;;;;;5.00;5.00;;;;;16.12;72.35;101159.59;5021627;28;45421;-61
2022/10/27 05:53:18;;;;;;;;;7.00;4.33;;;;;16.17;72.38;101173.56;5037753;28;45527;-59
2022/10/27 05:55:44;;;;;;;;;7.33;5.00;;;;;16.19;72.31;101176.16;5033938;28;46511;-59
2022/10/27 05:58:10;;;;;;;;;8.33;5.00;;;;;16.24;72.24;101168.63;5016727;28;45409;-60
2022/10/27 06:00:37;;;;;;;;;6.33;6.00;;;;;16.13;71.89;101139.00;5025447;28;45544;-61
2022/10/27 06:03:05;;;;;;;;;5.33;3.67;;;;;16.28;71.86;101154.03;5016862;28;45223;-60
2022/10/27 06:05:32;;;;;;;;;9.00;4.67;;;;;16.34;72.00;101158.94;5012706;28;45406;-59
2022/10/27 06:07:57;;;;;;;;;4.00;4.00;;;;;16.35;71.60;101151.75;5036738;28;45482;-59
2022/10/27 06:10:24;;;;;;;;;9.33;4.33;;;;;16.38;71.65;101152.38;5032640;28;45437;-60
2022/10/27 06:12:49;;;;;;;;;5.00;4.00;;;;;16.38;71.50;101140.78;5016787;28;45446;-60
2022/10/27 06:15:15;;;;;;;;;5.00;4.00;;;;;16.36;71.33;101143.59;5012284;28;45438;-61
2022/10/27 06:17:40;;;;;;;;;5.00;5.00;;;;;16.41;71.63;101157.56;5027258;28;45513;-60
2022/10/27 06:20:06;;;;;;;;;3.00;3.00;;;;;16.40;71.37;101157.66;5018959;28;45531;-60
2022/10/27 06:22:32;;;;;;;;;4.67;4.00;;;;;16.41;71.34;101157.56;5035970;28;45553;-61
2022/10/27 06:24:57;;;;;;;;;4.00;4.00;;;;;16.46;71.46;101163.44;5027165;28;45454;-59
2022/10/27 06:27:23;;;;;;;;;4.67;3.67;;;;;16.45;71.23;101150.13;5036854;28;45220;-60
2022/10/27 06:29:48;;;;;;;;;4.67;4.67;;;;;16.50;71.16;101148.81;5016554;28;45336;-59
2022/10/27 06:32:13;;;;;;;;;3.67;3.33;;;;;16.51;70.97;101137.13;5024198;28;47097;-59
2022/10/27 06:34:39;;;;;;;;;4.33;3.67;;;;;16.42;71.15;101119.00;5005306;28;45407;-57
2022/10/27 06:37:04;;;;;;;;;5.33;3.67;;;;;16.50;70.98;101123.81;5020486;28;45395;-62
2022/10/27 06:39:30;;;;;;;;;5.33;4.67;;;;;16.48;71.08;101126.59;5020909;28;45346;-59
2022/10/27 06:41:56;;;;;;;;;5.00;5.00;;;;;16.50;70.79;101135.41;5021939;28;47045;-57
2022/10/27 06:44:21;;;;;;;;;4.33;4.33;;;;;16.51;70.84;101142.47;5035956;28;45261;-58
2022/10/27 06:46:47;;;;;;;;;6.00;4.00;;;;;16.55;71.06;101137.78;5036217;28;45280;-60
2022/10/27 06:49:12;;;;;;;;;5.00;5.00;;;;;16.57;70.84;101133.16;5030759;28;45399;-60
2022/10/27 06:51:37;;;;;;;;;5.33;4.33;;;;;16.55;70.39;101129.72;5031669;28;45514;-61
2022/10/27 06:54:03;;;;;;;;;5.67;5.67;;;;;16.56;70.75;101138.63;5023077;28;46205;-58
2022/10/27 06:56:28;;;;;;;;;4.00;3.00;;;;;16.53;70.81;101132.50;5036046;28;45478;-61
2022/10/27 06:58:54;;;;;;;;;8.33;5.67;;;;;16.50;70.95;101124.66;5036246;28;45427;-59
2022/10/27 07:01:20;;;;;;;;;3.33;3.33;;;;;16.55;70.75;101123.50;5035181;28;45310;-59
2022/10/27 07:03:45;;;;;;;;;5.00;3.33;;;;;16.51;70.97;101131.75;5035637;28;46089;-59
2022/10/27 07:06:10;;;;;;;;;3.33;3.33;;;;;16.47;70.94;101138.31;5011397;28;45499;-59
2022/10/27 07:08:36;;;;;;;;;6.67;6.33;;;;;16.51;70.90;101141.63;5022313;28;45554;-59
2022/10/27 07:11:01;;;;;;;;;5.67;4.00;;;;;16.47;70.98;101148.19;5044777;28;45544;-62
2022/10/27 07:13:27;;;;;;;;;6.33;4.67;;;;;16.52;70.95;101160.31;5035889;28;46069;-62
2022/10/27 07:15:52;;;;;;;;;4.67;4.67;;;;;16.50;70.90;101154.19;5036185;28;45478;-62
2022/10/27 07:18:18;;;;;;;;;7.33;6.33;;;;;16.59;71.02;101170.63;5021586;28;45372;-62
2022/10/27 07:20:45;;;;;;;;;7.33;6.00;;;;;16.53;70.81;101161.16;5016163;28;45229;-65
2022/10/27 07:23:13;;;;;;;;;6.00;6.00;;;;;16.58;70.67;101159.03;5015615;28;46263;-64
2022/10/27 07:25:39;;;;;;;;;5.00;5.00;;;;;16.62;70.67;101156.97;5015678;28;46071;-59
2022/10/27 07:28:05;;;;;;;;;4.67;4.67;;;;;16.67;70.65;101176.31;5026788;28;45674;-64
2022/10/27 07:30:39;;;;;;;;;7.00;7.00;;;;;16.74;70.46;101185.66;5033145;28;45565;-64
2022/10/27 07:33:05;;;;;;;;;9.33;6.00;;;;;16.83;70.33;101201.13;5020752;28;45414;-68
2022/10/27 07:35:32;;;;;;;;;10.00;7.00;;;;;16.90;70.02;101210.44;5035921;28;45483;-61
2022/10/27 07:37:57;;;;;;;;;8.00;8.00;;;;;16.91;69.73;101196.03;5020079;28;45441;-64
2022/10/27 07:40:23;;;;;;;;;8.67;6.67;;;;;17.04;69.34;101207.59;5038440;28;45245;-60
2022/10/27 07:42:51;;;;;;;;;7.00;5.67;;;;;17.14;69.24;101206.94;5020970;28;46669;-62
2022/10/27 07:45:18;;;;;;;;;9.00;8.33;;;;;17.18;69.15;101203.03;5026046;28;45504;-59
2022/10/27 07:47:48;;;;;;;;;6.00;6.00;;;;;17.20;68.97;101211.88;5026023;28;45487;-61
2022/10/27 07:50:15;;;;;;;;;7.00;7.00;;;;;17.24;68.87;101211.53;5017610;28;46657;-61
2022/10/27 07:52:45;;;;;;;;;8.00;7.00;;;;;17.30;68.61;101202.97;5017465;28;45346;-61
2022/10/27 07:55:13;;;;;;;;;13.00;5.67;;;;;17.35;68.42;101202.66;5004390;28;45522;-60
2022/10/27 07:57:39;;;;;;;;;6.00;6.00;;;;;17.37;68.21;101203.41;5017774;28;45478;-60
2022/10/27 08:00:07;;;;;;;;;3.00;3.00;;;;;17.43;68.53;101192.16;5017768;28;45553;-60
2022/10/27 08:02:32;;;;;;;;;6.00;4.67;;;;;17.42;68.35;101185.06;5019946;28;46195;-60
2022/10/27 08:04:58;;;;;;;;;4.67;4.67;;;;;17.35;68.11;101167.72;5029957;28;45463;-62
2022/10/27 08:07:23;;;;;;;;;5.67;5.67;;;;;17.45;68.09;101195.63;5033362;28;45778;-60
2022/10/27 08:09:49;;;;;;;;;5.33;5.33;;;;;17.50;68.12;101214.94;5020455;28;45733;-61
2022/10/27 08:12:14;;;;;;;;;6.00;4.67;;;;;17.43;67.98;101197.53;5015489;28;46055;-61
2022/10/27 08:14:40;;;;;;;;;10.00;6.00;;;;;17.55;67.95;101195.78;5015342;28;45541;-60
2022/10/27 08:17:05;;;;;;;;;5.33;4.00;;;;;17.56;67.75;101200.16;5017791;28;45785;-61
2022/10/27 08:19:31;;;;;;;;;9.00;6.67;;;;;17.57;67.74;101193.81;5023965;28;45807;-59
2022/10/27 08:21:56;;;;;;;;;7.00;5.33;;;;;17.56;67.61;101192.09;5013825;28;46227;-61
2022/10/27 08:24:22;;;;;;;;;8.33;7.00;;;;;17.63;67.89;101201.44;5014978;28;45552;-61
2022/10/27 08:26:47;;;;;;;;;7.00;5.67;;;;;17.66;67.22;101204.75;5015136;28;45964;-61
2022/10/27 08:29:13;;;;;;;;;3.67;3.00;;;;;17.69;67.63;101203.69;5016188;28;45692;-60
2022/10/27 08:31:38;;;;;;;;;6.67;6.67;;;;;17.72;67.66;101203.47;5018070;28;46985;-60
2022/10/27 08:34:04;;;;;;;;;7.00;7.00;;;;;17.70;67.48;101216.16;5017083;28;46154;-61
2022/10/27 08:36:31;;;;;;;;;9.67;9.00;;;;;17.68;67.45;101197.44;5018315;28;45355;-63
2022/10/27 08:38:57;;;;;;;;;17.67;11.33;;;;;17.68;67.30;101199.25;5017101;28;45320;-59
2022/10/27 08:41:39;;;;;;;;;7.33;7.33;;;;;17.80;67.24;101216.31;5017240;28;46779;-61
2022/10/27 08:44:26;;;;;;;;;6.33;6.33;;;;;17.82;67.31;101219.75;5017570;28;45368;-60
2022/10/27 08:46:54;;;;;;;;;9.00;8.33;;;;;17.76;67.19;101206.78;5031557;28;45450;-60
2022/10/27 08:49:29;;;;;;;;;7.33;6.00;;;;;17.76;67.42;101198.69;5018619;28;45596;-59
2022/10/27 08:52:16;;;;;;;;;5.67;5.33;;;;;17.87;67.17;101217.56;5017234;28;46192;-61
2022/10/27 08:54:48;;;;;;;;;7.33;7.00;;;;;17.83;67.09;101221.44;5011152;28;45454;-60
2022/10/27 08:57:22;;;;;;;;;6.67;5.00;;;;;17.88;67.38;101230.06;5015075;28;45470;-60
2022/10/27 08:59:51;;;;;;;;;13.33;9.00;;;;;17.88;67.16;101233.59;5017598;28;45640;-60
2022/10/27 09:03:00;;;;;;;;;9.00;7.00;;;;;17.95;67.01;101231.28;5014509;28;45538;-61
2022/10/27 09:05:37;;;;;;;;;13.00;9.33;;;;;18.03;66.98;101233.41;5017192;28;45288;-60
2022/10/27 09:08:24;;;;;;;;;8.00;8.00;;;;;18.04;66.74;101230.59;5017542;28;45300;-60
2022/10/27 09:11:08;;;;;;;;;9.67;8.67;;;;;18.08;66.75;101237.44;5017184;28;45450;-59
2022/10/27 09:13:42;;;;;;;;;7.00;7.00;;;;;18.15;66.37;101244.06;5014853;28;46097;-59
2022/10/27 09:16:15;;;;;;;;;9.00;7.33;;;;;18.16;66.67;101244.94;5017131;28;45808;-60
2022/10/27 09:18:51;;;;;;;;;11.67;6.00;;;;;18.20;66.28;101231.09;5013930;28;45874;-60
2022/10/27 09:21:21;;;;;;;;;9.33;7.67;;;;;18.26;66.17;101238.72;5009755;28;45357;-61
2022/10/27 09:23:55;;;;;;;;;10.00;10.00;;;;;18.33;66.08;101235.53;5017668;28;46287;-60
2022/10/27 09:26:27;;;;;;;;;12.67;9.00;;;;;18.36;65.58;101235.28;5028101;28;45568;-60
2022/10/27 09:28:54;;;;;;;;;7.00;7.00;;;;;18.48;65.71;101235.19;5013921;28;45672;-61
2022/10/27 09:31:25;;;;;;;;;9.67;8.67;;;;;18.57;65.51;101241.69;5016907;28;45489;-61
2022/10/27 09:34:00;;;;;;;;;10.00;8.00;;;;;18.66;65.24;101248.22;5014666;28;45458;-59
2022/10/27 09:36:25;;;;;;;;;12.00;10.00;;;;;18.70;65.24;101261.31;5008266;28;45621;-61
2022/10/27 09:38:51;;;;;;;;;9.33;7.67;;;;;18.73;65.13;101250.28;5013573;28;45364;-60
2022/10/27 09:41:17;;;;;;;;;9.00;7.00;;;;;18.81;65.31;101258.63;5016350;28;45594;-60
2022/10/27 09:43:42;;;;;;;;;10.00;10.00;;;;;18.86;64.74;101250.16;5011993;28;47382;-61
2022/10/27 09:46:16;;;;;;;;;9.00;8.67;;;;;18.95;64.40;101256.66;5012573;28;45389;-61
2022/10/27 09:48:41;;;;;;;;;3.00;3.00;;;;;19.03;64.86;101251.50;5017222;28;45287;-60
2022/10/27 09:51:23;;;;;;;;;8.00;8.00;;;;;19.07;64.02;101261.06;5017281;28;45599;-61
2022/10/27 09:53:51;;;;;;;;;9.67;8.00;;;;;19.06;64.41;101240.47;5017273;28;45450;-61
2022/10/27 09:56:23;;;;;;;;;9.33;7.33;;;;;19.23;64.33;101241.78;5004578;28;45414;-59
2022/10/27 09:58:57;;;;;;;;;8.67;6.67;;;;;19.25;63.40;101229.03;5027652;28;45328;-61
2022/10/27 10:01:25;;;;;;;;;7.33;7.33;;;;;19.30;63.60;101216.91;5014106;28;45515;-61
2022/10/27 10:03:54;;;;;;;;;7.67;7.67;;;;;19.46;63.01;101224.56;5009471;28;45264;-61
2022/10/27 10:06:34;;;;;;;;;9.33;8.00;;;;;19.60;62.99;101231.53;5030001;28;45635;-62
2022/10/27 10:09:30;;;;;;;;;11.33;9.00;;;;;19.68;62.57;101231.75;5029204;28;45434;-60
2022/10/27 10:12:11;;;;;;;;;9.67;8.67;;;;;19.74;62.14;101226.69;5013520;28;46164;-61
2022/10/27 10:14:37;;;;;;;;;10.67;9.00;;;;;19.83;61.80;101245.81;5014352;28;47196;-59
2022/10/27 10:17:02;;;;;;;;;7.33;6.00;;;;;19.87;61.30;101242.69;5010810;28;46390;-59
2022/10/27 10:19:28;;;;;;;;;9.33;7.00;;;;;19.92;61.69;101239.59;5008264;28;45568;-61
2022/10/27 10:21:59;;;;;;;;;9.00;9.00;;;;;19.95;61.33;101234.81;5019823;28;45487;-62
2022/10/27 10:24:32;;;;;;;;;9.00;8.00;;;;;19.97;61.55;101238.25;5016558;28;46147;-59
2022/10/27 10:27:01;;;;;;;;;7.33;7.33;;;;;20.02;62.07;101230.59;5014408;28;45331;-65
2022/10/27 10:29:26;;;;;;;;;9.33;7.33;;;;;20.19;61.78;101241.81;5011352;28;45405;-62
2022/10/27 10:32:11;;;;;;;;;9.67;9.67;;;;;20.27;61.52;101245.53;5016875;28;45406;-63
2022/10/27 10:34:37;;;;;;;;;9.00;9.00;;;;;20.27;61.32;101244.69;5011598;28;48127;-64
2022/10/27 10:37:13;;;;;;;;;11.67;7.67;;;;;20.31;61.03;101243.41;5014748;28;45784;-67
2022/10/27 10:39:39;;;;;;;;;11.67;10.00;;;;;20.30;60.79;101234.47;5014420;28;45182;-61
2022/10/27 10:42:16;;;;;;;;;10.00;10.00;;;;;20.39;60.92;101248.19;5014412;28;45576;-58
2022/10/27 10:44:41;;;;;;;;;8.33;7.33;;;;;20.47;60.29;101256.50;4997298;28;46061;-63
2022/10/27 10:47:26;;;;;;;;;10.25;7.50;;;;;20.53;59.86;101246.00;5001495;28;45278;-60
2022/10/27 10:50:00;;;;;;;;;17.00;12.00;;;;;20.52;60.12;101240.75;5013222;28;45291;-65
2022/10/27 10:52:37;;;;;;;;;8.33;8.00;;;;;20.51;59.97;101248.00;5016163;28;45383;-61
2022/10/27 10:55:17;;;;;;;;;9.00;9.00;;;;;20.51;59.74;101234.47;5011333;28;45551;-65
2022/10/27 10:57:44;;;;;;;;;9.67;9.67;;;;;20.56;59.91;101226.81;5013500;28;45434;-67
2022/10/27 11:00:18;;;;;;;;;7.00;7.00;;;;;20.67;59.53;101230.41;5015394;28;45446;-68
2022/10/27 11:03:00;;;;;;;;;9.00;7.00;;;;;20.71;59.62;101242.69;5030325;28;45247;-61
2022/10/27 11:05:32;;;;;;;;;11.33;9.00;;;;;20.79;59.24;101240.16;5014950;28;46456;-61
2022/10/27 11:07:58;;;;;;;;;9.67;9.67;;;;;20.86;59.00;101244.03;5010896;28;45587;-62
2022/10/27 11:10:29;;;;;;;;;11.67;11.00;;;;;20.94;58.75;101232.53;5007572;28;45507;-60
2022/10/27 11:13:05;;;;;;;;;8.00;8.00;;;;;21.03;60.83;101232.56;5014357;28;45638;-61
2022/10/27 11:15:36;;;;;;;;;8.33;6.67;;;;;21.11;60.26;101242.69;5024690;28;45765;-60
2022/10/27 11:18:19;;;;;;;;;8.00;8.00;;;;;21.15;59.16;101227.91;5042248;28;46218;-60
2022/10/27 11:20:48;;;;;;;;;10.25;9.00;;;;;21.18;58.60;101209.53;5011864;28;45406;-61
2022/10/27 11:23:22;;;;;;;;;8.25;8.25;;;;;21.28;59.70;101219.56;5009012;28;45767;-61
2022/10/27 11:25:48;;;;;;;;;10.50;10.00;;;;;21.35;59.63;101221.53;5011232;28;45818;-61
2022/10/27 11:28:30;;;;;;;;;9.50;9.50;;;;;21.38;59.05;101196.06;5011853;28;46166;-62
2022/10/27 11:31:04;;;;;;;;;14.75;14.75;;;;;21.61;58.68;101211.03;5010096;28;45762;-62
2022/10/27 11:33:52;;;;;;;;;13.00;11.50;;;;;21.85;57.12;101216.00;5015883;28;45561;-60